Latest Weather Observations for Nuriootpa

IDS60801

Issued at 1:21 am CST Friday 3 July 2020 (issued every 10 minutes, with the page automatically refreshed every 10 minutes)

About weather observations | Map of weather stations | Latest weather observations for SA | Other Formats
Station Details ID: 023373 Name: NURIOOTPA PIRSA Lat: -34.48 Lon: 139.01 Height: 275.0 m
Data from the previous 72 hours. | See also: Recent months at Nuriootpa
Date/Time
CST
Temp
°C
App
Temp
°C
Dew
Point
°C
Rel
Hum
%
Delta-T
°C
Wind Press
QNH
hPa
Press
MSL
hPa
Rain since
9am
mm
Dir  Spd
km/h
Gust
km/h
Spd
kts
Gust
kts
03/01:00am 7.8 4.4 7.8 100 0.0 NW 15 19 8 10 1021.9 1022.2 3.0
03/12:30am 7.8 4.1 7.8 100 0.0 NW 17 22 9 12 1021.9 1022.2 3.0
03/12:00am 7.9 4.2 7.8 99 0.0 WNW 17 24 9 13 1022.0 1022.3 3.0
 
Date/Time
CST
Temp
°C
App
Temp
°C
Dew
Point
°C
Rel
Hum
%
Delta-T
°C
Wind Press
QNH
hPa
Press
MSL
hPa
Rain since
9am
mm
Dir  Spd
km/h
Gust
km/h
Spd
kts
Gust
kts
02/11:30pm 8.0 3.9 7.9 99 0.0 WNW 19 26 10 14 1022.1 1022.4 3.0
02/11:00pm 7.4 4.3 7.4 100 0.0 WNW 13 20 7 11 1022.0 1022.3 3.0
02/10:30pm 7.5 4.1 7.5 100 0.0 WNW 15 20 8 11 1022.0 1022.3 3.0
02/10:00pm 7.6 4.2 7.6 100 0.0 W 15 20 8 11 1021.9 1022.2 3.0
02/09:30pm 7.1 3.6 7.1 100 0.0 WNW 15 22 8 12 1021.6 1022.0 3.0
02/09:00pm 6.6 3.3 6.6 100 0.0 WNW 13 17 7 9 1021.5 1021.9 3.0
02/08:30pm 7.0 3.5 7.0 100 0.0 W 15 20 8 11 1021.2 1021.6 3.0
02/08:00pm 7.5 3.7 7.5 100 0.0 WNW 17 26 9 14 1021.0 1021.4 3.0
02/07:30pm 7.8 4.1 7.8 100 0.0 WNW 17 22 9 12 1020.7 1021.1 3.0
02/07:00pm 7.8 4.8 7.8 100 0.0 WNW 13 19 7 10 1020.4 1020.8 3.0
02/06:30pm 7.6 4.2 7.5 99 0.0 W 15 20 8 11 1020.0 1020.4 3.0
02/06:00pm 7.9 3.8 7.8 99 0.0 W 19 24 10 13 1019.6 1020.0 3.0
02/05:30pm 8.2 3.2 8.2 100 0.0 W 24 37 13 20 1019.3 1019.7 3.0
02/05:00pm 8.2 4.0 8.1 99 0.0 W 20 32 11 17 1019.1 1019.4 3.0
02/04:30pm 8.1 3.5 8.1 100 0.0 W 22 30 12 16 1019.0 1019.3 3.0
02/04:00pm 7.9 3.2 7.9 100 0.0 W 22 32 12 17 1018.7 1019.0 3.0
02/03:36pm 9.3 2.8 8.1 92 0.6 W 32 65 17 35 1018.5 1018.8 2.4
02/03:30pm 10.8 5.2 8.6 86 1.1 W 28 39 15 21 1018.4 1018.7 2.2
02/03:00pm 10.5 5.0 7.4 81 1.5 W 26 33 14 18 1018.2 1018.5 2.2
02/02:33pm 10.0 3.7 8.9 93 0.5 W 32 50 17 27 1018.2 1018.5 2.2
02/02:30pm 10.0 3.1 8.8 92 0.6 W 35 50 19 27 1018.1 1018.4 2.2
02/02:08pm 11.1 4.5 7.6 79 1.7 W 32 50 17 27 1017.8 1018.2 2.0
02/02:00pm 11.3 4.5 7.6 78 1.8 W 33 46 18 25 1017.8 1018.2 2.0
02/01:30pm 10.4 5.7 9.3 93 0.6 W 24 35 13 19 1018.1 1018.4 2.0
02/01:00pm 9.4 4.5 8.6 95 0.4 W 24 33 13 18 1018.1 1018.4 2.0
02/12:30pm 10.4 4.8 8.8 90 0.8 W 28 43 15 23 1017.7 1018.1 0.2
02/12:07pm 11.0 5.1 8.9 87 1.1 W 30 48 16 26 1017.9 1018.3 0.0
02/12:00pm 11.3 6.3 9.4 88 1.0 W 26 43 14 23 1017.9 1018.3 0.0
02/11:30am 10.4 4.8 8.7 89 0.8 W 28 43 15 23 1018.4 1018.7 0.0
02/11:00am 10.2 5.2 9.6 96 0.3 WNW 26 39 14 21 1018.2 1018.5 0.0
02/10:30am 10.0 5.4 9.5 97 0.3 WNW 24 39 13 21 1018.2 1018.5 0.0
02/10:00am 9.1 4.0 9.1 100 0.0 WNW 26 37 14 20 1018.1 1018.4 0.0
02/09:30am 8.7 3.7 7.9 95 0.4 WNW 24 32 13 17 1017.6 1018.0 0.0
02/09:00am 8.0 3.9 8.0 100 0.0 WNW 19 28 10 15 1017.2 1017.6 3.4
02/08:30am 7.6 3.4 7.6 100 0.0 WNW 19 28 10 15 1017.0 1017.4 3.4
02/08:00am 7.1 3.6 7.1 100 0.0 WNW 15 22 8 12 1016.6 1017.0 3.4
02/07:30am 7.2 3.3 7.2 100 0.0 WNW 17 22 9 12 1016.1 1016.4 3.4
02/07:00am 7.1 2.8 7.1 100 0.0 WNW 19 32 10 17 1015.8 1016.1 3.4
02/06:30am 7.4 3.6 7.4 100 0.0 WNW 17 24 9 13 1015.4 1015.7 3.4
02/06:00am 7.5 3.1 7.5 100 0.0 WNW 20 32 11 17 1015.4 1015.7 3.4
02/05:30am 7.7 3.0 7.7 100 0.0 WNW 22 33 12 18 1014.8 1015.1 3.4
02/05:00am 7.5 2.7 7.5 100 0.0 WNW 22 32 12 17 1014.3 1014.6 3.4
02/04:30am 7.5 3.3 7.5 100 0.0 WNW 19 28 10 15 1014.1 1014.5 3.4
02/04:00am 7.1 2.6 7.1 100 0.0 W 20 33 11 18 1013.8 1014.2 3.4
02/03:30am 7.2 2.4 7.2 100 0.0 WNW 22 37 12 20 1013.5 1013.9 3.4
02/03:00am 7.3 2.9 7.3 100 0.0 WNW 20 28 11 15 1013.4 1013.8 3.4
02/02:30am 7.7 1.8 7.7 100 0.0 W 28 39 15 21 1012.8 1013.1 3.4
02/02:06am 7.9 1.7 7.9 100 0.0 W 30 50 16 27 1012.2 1012.5 3.2
02/02:00am 7.7 1.8 7.7 100 0.0 W 28 41 15 22 1012.3 1012.6 3.2
02/01:53am 7.5 1.6 7.5 100 0.0 W 28 46 15 25 1012.3 1012.6 3.2
02/01:30am 7.9 1.3 7.9 100 0.0 W 32 46 17 25 1012.3 1012.6 3.2
02/01:27am 8.3 1.8 8.3 100 0.0 W 32 46 17 25 1012.4 1012.7 3.2
02/01:01am 8.0 0.5 8.0 100 0.0 WNW 37 56 20 30 1011.4 1011.7 3.0
02/01:00am 8.1 0.3 8.1 100 0.0 WNW 39 56 21 30 1011.4 1011.7 3.0
02/12:33am 8.8 0.7 8.8 100 0.0 W 41 59 22 32 1011.4 1011.7 3.0
02/12:30am 8.7 0.2 8.7 100 0.0 W 43 59 23 32 1011.4 1011.7 3.0
02/12:07am 9.1 1.9 9.1 100 0.0 W 37 56 20 30 1011.6 1011.9 2.8
02/12:00am 9.1 2.3 9.1 100 0.0 W 35 48 19 26 1011.8 1012.1 2.8
 
Date/Time
CST
Temp
°C
App
Temp
°C
Dew
Point
°C
Rel
Hum
%
Delta-T
°C
Wind Press
QNH
hPa
Press
MSL
hPa
Rain since
9am
mm
Dir  Spd
km/h
Gust
km/h
Spd
kts
Gust
kts
01/11:30pm 9.4 2.6 9.4 100 0.0 WNW 35 54 19 29 1011.8 1012.1 2.8
01/11:00pm 9.3 3.1 9.3 100 0.0 WNW 32 44 17 24 1011.8 1012.1 2.8
01/10:30pm 8.2 3.2 8.2 100 0.0 WNW 24 33 13 18 1012.2 1012.5 2.8
01/10:00pm 8.5 3.2 8.5 100 0.0 WNW 26 43 14 23 1011.9 1012.2 2.8
01/09:30pm 9.4 3.2 9.4 100 0.0 W 32 46 17 25 1011.9 1012.2 2.6
01/09:00pm 10.1 4.7 9.6 97 0.3 WNW 28 44 15 24 1011.0 1011.3 1.4
01/08:30pm 10.0 5.0 9.4 96 0.3 NW 26 41 14 22 1011.0 1011.3 1.2
01/08:00pm 9.8 4.5 9.8 100 0.0 W 28 41 15 22 1010.6 1010.9 1.0
01/07:30pm 10.2 6.4 9.9 98 0.2 W 20 30 11 16 1010.5 1010.8 0.0
01/07:00pm 10.9 4.5 9.3 90 0.8 W 33 48 18 26 1010.1 1010.5 0.0
01/06:45pm 11.6 5.5 9.7 88 1.0 W 32 50 17 27 1009.8 1010.1 0.0
01/06:30pm 11.9 6.8 10.5 91 0.7 W 28 43 15 23 1009.6 1009.9 0.0
01/06:00pm 12.4 6.0 10.6 89 0.9 W 35 56 19 30 1008.8 1009.1 0.0
01/05:39pm 13.0 7.5 10.5 85 1.3 W 30 50 16 27 1008.3 1008.6 0.0
01/05:30pm 13.5 7.0 10.3 81 1.7 WSW 35 56 19 30 1008.2 1008.5 0.0
01/05:23pm 14.7 8.4 9.7 72 2.6 WNW 33 56 18 30 1007.9 1008.2 0.0
01/05:19pm 16.4 10.3 6.8 53 4.8 NW 28 48 15 26 1007.3 1007.6 0.0
01/05:00pm 16.2 11.9 7.2 55 4.5 NW 19 32 10 17 1006.9 1007.1 0.0
01/04:30pm 17.0 12.8 7.4 53 4.9 NW 19 32 10 17 1006.9 1007.1 0.0
01/04:00pm 17.7 13.4 7.7 52 5.1 NW 20 39 11 21 1006.8 1007.0 0.0
01/03:30pm 18.3 12.9 8.0 51 5.4 NW 26 33 14 18 1007.1 1007.4 0.0
01/03:00pm 18.8 14.0 9.0 53 5.2 NW 24 35 13 19 1007.1 1007.4 0.0
01/02:36pm 19.3 13.7 8.9 51 5.5 NW 28 50 15 27 1007.3 1007.6 0.0
01/02:30pm 19.3 13.8 9.2 52 5.4 NW 28 41 15 22 1007.3 1007.6 0.0
01/02:00pm 19.4 15.5 9.3 52 5.4 NNW 20 33 11 18 1007.3 1007.6 0.0
01/01:30pm 19.3 14.4 8.3 49 5.8 NNW 24 37 13 20 1007.8 1008.1 0.0
01/01:00pm 18.4 14.6 9.2 55 4.9 N 19 32 10 17 1008.4 1008.7 0.0
01/12:30pm 18.8 14.9 9.6 55 4.9 NNW 20 30 11 16 1009.1 1009.4 0.0
01/12:00pm 18.4 14.4 9.2 55 4.9 NNW 20 28 11 15 1009.7 1010.0 0.0
01/11:30am 16.6 14.0 9.3 62 3.8 N 13 22 7 12 1010.6 1010.9 0.0
01/11:00am 16.1 12.4 7.8 58 4.2 NNW 17 28 9 15 1011.2 1011.5 0.0
01/10:30am 15.4 11.1 6.9 57 4.2 NNW 19 32 10 17 1011.7 1012.0 0.0
01/10:00am 14.5 10.2 6.8 60 3.8 N 19 32 10 17 1011.8 1012.1 0.0
01/09:30am 13.4 9.2 5.8 60 3.6 N 17 30 9 16 1012.1 1012.4 0.0
01/09:00am 12.0 9.0 5.9 66 2.9 NNE 11 17 6 9 1012.3 1012.6 0.0
01/08:30am 9.2 5.9 4.4 72 2.2 NE 11 13 6 7 1012.4 1012.7 0.0
01/08:00am 7.3 3.7 3.2 75 1.8 NE 11 13 6 7 1012.6 1012.9 0.0
01/07:30am 3.9 1.1 2.3 89 0.6 NE 6 9 3 5 1013.0 1013.3 0.0
01/07:00am 2.3 -0.8 1.6 95 0.3 ESE 7 7 4 4 1013.2 1013.5 0.0
01/06:30am 2.9 0.5 1.9 93 0.4 ESE 4 7 2 4 1013.4 1013.7 0.0
01/06:00am 2.9 0.0 1.7 92 0.5 E 6 7 3 4 1013.5 1013.8 0.0
01/05:30am 3.7 0.3 2.1 89 0.6 E 9 11 5 6 1013.6 1013.9 0.0
01/05:00am 2.7 -0.7 1.8 94 0.4 ENE 9 11 5 6 1013.9 1014.2 0.0
01/04:30am 3.1 0.1 2.2 94 0.4 ENE 7 9 4 5 1014.1 1014.4 0.0
01/04:00am 3.2 0.2 2.2 93 0.4 ENE 7 11 4 6 1014.3 1014.5 0.0
01/03:30am 3.5 0.6 2.6 94 0.4 ENE 7 9 4 5 1014.6 1014.8 0.0
01/03:00am 3.8 2.3 2.8 93 0.4 CALM 0 0 0 0 1014.6 1014.8 0.0
01/02:30am 3.2 0.2 2.2 93 0.4 ENE 7 9 4 5 1014.8 1015.1 0.0
01/02:00am 3.0 0.2 2.0 93 0.4 ENE 6 7 3 4 1015.0 1015.3 0.0
01/01:30am 3.6 0.7 2.4 92 0.5 NE 7 9 4 5 1015.0 1015.3 0.0
01/01:00am 3.3 1.3 2.4 94 0.4 ENE 2 7 1 4 1015.4 1015.7 0.0
01/12:30am 3.1 1.5 2.2 94 0.4 CALM 0 0 0 0 1015.7 1016.0 0.0
01/12:00am 3.4 1.5 2.7 95 0.3 ENE 2 7 1 4 1016.0 1016.3 0.0
 
Date/Time
CST
Temp
°C
App
Temp
°C
Dew
Point
°C
Rel
Hum
%
Delta-T
°C
Wind Press
QNH
hPa
Press
MSL
hPa
Rain since
9am
mm
Dir  Spd
km/h
Gust
km/h
Spd
kts
Gust
kts
30/11:30pm 3.3 1.7 2.4 94 0.4 CALM 0 0 0 0 1016.3 1016.6 0.0
30/11:00pm 3.8 2.3 2.8 93 0.4 CALM 0 0 0 0 1016.6 1016.9 0.0
30/10:30pm 4.0 2.5 3.0 93 0.4 CALM 0 4 0 2 1016.8 1017.1 0.0
30/10:00pm 4.5 3.0 3.2 91 0.5 CALM 0 0 0 0 1016.9 1017.2 0.0
30/09:30pm 4.6 2.0 3.3 91 0.5 E 6 7 3 4 1017.0 1017.3 0.0
30/09:00pm 5.2 2.5 3.7 90 0.6 ENE 7 11 4 6 1017.1 1017.4 0.0
30/08:30pm 5.8 3.2 4.0 88 0.8 E 7 9 4 5 1017.1 1017.4 0.0
30/08:00pm 6.1 3.5 4.1 87 0.9 E 7 11 4 6 1016.9 1017.2 0.0
30/07:30pm 5.7 3.1 4.0 89 0.7 E 7 9 4 5 1016.7 1017.0 0.0
30/07:00pm 6.5 5.2 4.3 86 1.0 CALM 0 0 0 0 1016.7 1017.0 0.0
30/06:30pm 8.1 6.8 4.3 77 1.7 CALM 0 0 0 0 1016.2 1016.5 0.0
30/06:00pm 10.5 8.7 5.3 70 2.4 N 4 11 2 6 1015.9 1016.2 0.0
30/05:30pm 11.9 9.6 5.5 65 3.0 NNW 7 9 4 5 1015.4 1015.7 0.0
30/05:00pm 13.0 9.6 6.1 63 3.3 NW 13 17 7 9 1015.1 1015.4 0.0
30/04:30pm 14.3 11.0 6.2 58 3.9 NW 13 20 7 11 1014.7 1014.9 0.0
30/04:00pm 14.9 10.9 6.5 57 4.1 NW 17 24 9 13 1014.5 1014.7 0.0
30/03:30pm 15.2 10.6 5.4 52 4.7 NW 19 30 10 16 1014.4 1014.6 0.0
30/03:00pm 15.2 9.7 6.0 54 4.5 WNW 24 35 13 19 1014.3 1014.5 0.0
30/02:30pm 15.3 10.2 5.8 53 4.6 NW 22 33 12 18 1013.9 1014.2 0.0
30/02:00pm 15.5 11.0 7.0 57 4.2 NW 20 32 11 17 1014.1 1014.4 0.0
30/01:30pm 15.1 10.7 7.2 59 3.9 WNW 20 32 11 17 1014.5 1014.7 0.0
30/01:00pm 15.1 10.7 7.2 59 3.9 NW 20 35 11 19 1014.7 1014.9 0.0
30/12:30pm 15.3 11.6 6.1 54 4.5 NW 15 30 8 16 1015.1 1015.4 0.0
30/12:00pm 15.1 11.3 5.9 54 4.5 NNW 15 24 8 13 1015.3 1015.6 0.0
30/11:30am 15.2 11.9 6.5 56 4.3 WNW 13 28 7 15 1015.7 1016.0 0.0
30/11:00am 14.4 12.4 6.3 58 4.0 NE 6 13 3 7 1015.9 1016.2 0.0
30/10:30am 13.5 11.2 5.9 60 3.6 NNE 7 11 4 6 1016.0 1016.3 0.0
30/10:00am 11.9 11.1 6.4 69 2.6 CALM 0 6 0 3 1016.2 1016.5 0.0
30/09:30am 9.5 7.1 5.1 74 2.0 ENE 7 9 4 5 1016.1 1016.4 0.0
30/09:00am 8.6 5.7 4.6 76 1.8 ENE 9 11 5 6 1016.1 1016.4 0.0
30/08:30am 6.2 4.0 5.5 95 0.3 ENE 6 9 3 5 1016.2 1016.5 0.0
30/08:00am 2.1 0.4 2.1 100 0.0 CALM 0 0 0 0 1016.1 1016.4 0.0
30/07:30am 2.1 0.4 2.0 99 0.0 CALM 0 0 0 0 1016.2 1016.5 0.0
30/07:00am 2.3 0.6 1.9 97 0.2 CALM 0 6 0 3 1016.5 1016.8 0.0
30/06:30am 3.8 2.3 2.9 94 0.4 CALM 0 0 0 0 1016.7 1017.0 0.0
30/06:00am 4.8 0.9 3.5 91 0.5 SW 13 19 7 10 1016.4 1016.7 0.0
30/05:30am 5.4 2.6 3.3 86 0.9 E 7 9 4 5 1015.9 1016.2 0.0
30/05:00am 5.5 3.4 3.8 89 0.7 SW 4 9 2 5 1016.6 1016.9 0.0
30/04:45am 5.8 2.7 3.6 86 0.9 WNW 9 13 5 7 1016.4 1016.7 0.0
30/04:30am 6.3 2.5 4.0 85 1.0 NE 13 20 7 11 1014.4 1014.6 0.0
30/04:00am 2.9 0.2 2.9 100 0.0 E 6 11 3 6 1016.0 1016.3 0.0
30/03:30am 2.5 0.8 2.1 97 0.2 CALM 0 0 0 0 1017.4 1017.7 0.0
30/03:00am 2.4 -1.4 1.8 96 0.2 SW 11 17 6 9 1017.8 1018.2 0.0
30/02:30am 4.1 1.3 3.2 94 0.4 NE 7 11 4 6 1017.1 1017.4 0.0
30/02:00am 3.8 0.9 2.8 93 0.4 NNE 7 9 4 5 1017.2 1017.5 0.0
30/01:30am 3.2 -0.1 2.3 94 0.4 ENE 9 13 5 7 1017.4 1017.7 0.0

Other formats

Comma delimited format used in spreadsheet applications
http://www.bom.gov.au/fwo/IDS60801/IDS60801.94681.axf

JavaScript Object Notation format (JSON) in row-major order
http://www.bom.gov.au/fwo/IDS60801/IDS60801.94681.json

Data quality

Most of these data are generated automatically and are frequently updated. Quality checks on data are not normally performed. It is possible for incorrect values to appear. Refer to information at About Latest Weather Observations and please check the disclaimer before using these data.